createdAt,value
2019-02-09T00:00:07.459Z,5.90
2019-02-09T00:01:07.470Z,5.84
2019-02-09T00:02:08.302Z,5.90
2019-02-09T00:03:07.407Z,5.94
2019-02-09T00:04:07.311Z,5.82
2019-02-09T00:05:08.236Z,5.83
2019-02-09T00:06:07.242Z,5.93
2019-02-09T00:07:07.206Z,5.83
2019-02-09T00:08:07.178Z,5.90
2019-02-09T00:09:07.164Z,5.87
2019-02-09T00:10:09.742Z,5.93
2019-02-09T00:11:07.075Z,5.80
2019-02-09T00:12:07.044Z,5.87
2019-02-09T00:13:07.738Z,5.89
2019-02-09T00:14:06.976Z,5.76
2019-02-09T00:15:06.969Z,5.82
2019-02-09T00:16:06.919Z,5.82
2019-02-09T00:17:06.876Z,5.82
2019-02-09T00:18:06.851Z,5.93
2019-02-09T00:19:06.811Z,5.87
2019-02-09T00:20:06.817Z,5.80
2019-02-09T00:21:06.753Z,5.73
2019-02-09T00:22:06.712Z,5.75
2019-02-09T00:23:06.676Z,5.76
2019-02-09T00:24:06.641Z,5.69
2019-02-09T00:25:06.610Z,5.73
2019-02-09T00:26:06.601Z,5.69
2019-02-09T00:27:06.548Z,5.68
2019-02-09T00:28:06.511Z,5.68
2019-02-09T00:29:06.479Z,5.69
2019-02-09T00:30:06.449Z,5.65
2019-02-09T00:31:06.433Z,5.64
2019-02-09T00:32:06.383Z,5.62
2019-02-09T00:33:06.347Z,5.57
2019-02-09T00:34:06.310Z,5.59
2019-02-09T00:35:06.279Z,5.61
2019-02-09T00:36:06.271Z,5.64
2019-02-09T00:37:06.215Z,5.61
2019-02-09T00:38:06.741Z,5.64
2019-02-09T00:39:06.148Z,5.61
2019-02-09T00:40:06.118Z,5.51
2019-02-09T00:41:06.111Z,5.48
2019-02-09T00:42:06.048Z,5.56
2019-02-09T00:43:06.739Z,5.50
2019-02-09T00:44:05.983Z,5.47
2019-02-09T00:45:05.948Z,5.46
2019-02-09T00:46:06.005Z,5.36
2019-02-09T00:47:05.885Z,5.44
2019-02-09T00:48:05.848Z,5.39
2019-02-09T00:49:05.819Z,5.33
2019-02-09T00:50:05.784Z,5.38
2019-02-09T00:51:05.809Z,5.36
2019-02-09T00:52:05.715Z,5.33
2019-02-09T00:53:05.685Z,5.32
2019-02-09T00:54:05.650Z,5.33
2019-02-09T00:55:05.621Z,5.23
2019-02-09T00:56:05.614Z,5.17
2019-02-09T00:57:05.551Z,5.20
2019-02-09T00:58:05.517Z,5.20
2019-02-09T00:59:05.487Z,5.20
2019-02-09T01:00:05.454Z,5.17
2019-02-09T01:01:05.442Z,5.14
2019-02-09T01:02:05.428Z,5.10
2019-02-09T01:03:05.354Z,5.11
2019-02-09T01:04:05.318Z,5.10
2019-02-09T01:05:06.241Z,5.05
2019-02-09T01:06:05.274Z,5.05
2019-02-09T01:07:05.224Z,5.05
2019-02-09T01:08:05.202Z,4.99
2019-02-09T01:09:05.151Z,4.89
2019-02-09T01:10:05.121Z,4.92
2019-02-09T01:11:05.107Z,4.86
2019-02-09T01:12:05.054Z,4.78
2019-02-09T01:13:05.034Z,4.90
2019-02-09T01:14:04.984Z,4.87
2019-02-09T01:15:05.744Z,4.84
2019-02-09T01:16:04.941Z,4.82
2019-02-09T01:17:04.885Z,4.74
2019-02-09T01:18:04.848Z,4.74
2019-02-09T01:19:04.817Z,4.77
2019-02-09T01:20:04.784Z,4.68
2019-02-09T01:21:04.772Z,4.82
2019-02-09T01:22:04.718Z,4.84
2019-02-09T01:23:04.683Z,4.71
2019-02-09T01:24:04.681Z,4.71
2019-02-09T01:25:04.614Z,4.82
2019-02-09T01:26:04.604Z,4.71
2019-02-09T01:27:04.555Z,4.67
2019-02-09T01:28:04.571Z,4.70
2019-02-09T01:29:04.481Z,4.70
2019-02-09T01:30:04.451Z,4.73
2019-02-09T01:31:04.434Z,4.74
2019-02-09T01:32:04.381Z,4.67
2019-02-09T01:33:04.347Z,4.73
2019-02-09T01:34:04.317Z,4.68
2019-02-09T01:35:04.280Z,4.73
2019-02-09T01:36:04.274Z,4.73
2019-02-09T01:37:04.210Z,4.70
2019-02-09T01:38:04.177Z,4.68
2019-02-09T01:39:04.145Z,4.70
2019-02-09T01:40:04.122Z,4.68
2019-02-09T01:41:04.099Z,4.67
2019-02-09T01:42:04.068Z,4.66
2019-02-09T01:43:04.011Z,4.63
2019-02-09T01:44:03.981Z,4.59
2019-02-09T01:45:03.945Z,4.58
2019-02-09T01:46:03.913Z,4.71
2019-02-09T01:47:03.903Z,4.73
2019-02-09T01:48:03.842Z,4.74
2019-02-09T01:49:04.747Z,4.73
2019-02-09T01:50:03.778Z,4.70
2019-02-09T01:51:03.740Z,4.74
2019-02-09T01:52:03.729Z,4.70
2019-02-09T01:53:03.677Z,4.73
2019-02-09T01:54:03.649Z,4.71
2019-02-09T01:55:03.674Z,4.67
2019-02-09T01:56:03.573Z,4.75
2019-02-09T01:57:03.562Z,4.80
2019-02-09T01:58:03.517Z,4.77
2019-02-09T01:59:03.476Z,4.78
2019-02-09T02:00:10.414Z,4.73
2019-02-09T02:01:03.401Z,4.80
2019-02-09T02:02:03.392Z,4.84
2019-02-09T02:03:03.341Z,4.92
2019-02-09T02:04:03.302Z,4.78
2019-02-09T02:05:03.271Z,4.92
2019-02-09T02:06:03.236Z,4.90
2019-02-09T02:07:03.226Z,4.96
2019-02-09T02:08:03.177Z,4.99
2019-02-09T02:09:03.138Z,4.94
2019-02-09T02:10:03.101Z,5.02
2019-02-09T02:11:03.074Z,5.10
2019-02-09T02:12:03.140Z,5.11
2019-02-09T02:13:03.001Z,5.15
2019-02-09T02:14:03.007Z,5.21
2019-02-09T02:15:02.938Z,5.18
2019-02-09T02:16:02.923Z,5.29
2019-02-09T02:17:02.890Z,5.41
2019-02-09T02:18:02.837Z,5.48
2019-02-09T02:19:02.863Z,5.44
2019-02-09T02:20:02.770Z,5.53
2019-02-09T02:21:02.734Z,5.47
2019-02-09T02:22:03.661Z,5.57
2019-02-09T02:23:02.672Z,5.47
2019-02-09T02:24:02.638Z,5.53
2019-02-09T02:25:02.611Z,5.56
2019-02-09T02:26:02.574Z,5.50
2019-02-09T02:27:02.563Z,5.53
2019-02-09T02:28:02.501Z,5.56
2019-02-09T02:29:02.470Z,5.54
2019-02-09T02:30:02.442Z,5.64
2019-02-09T02:31:02.415Z,5.51
2019-02-09T02:32:03.161Z,5.56
2019-02-09T02:33:02.343Z,5.48
2019-02-09T02:34:02.338Z,5.51
2019-02-09T02:35:02.272Z,5.61
2019-02-09T02:36:02.759Z,5.56
2019-02-09T02:37:02.224Z,5.61
2019-02-09T02:38:02.171Z,5.68
2019-02-09T02:39:02.148Z,5.71
2019-02-09T02:40:02.105Z,5.66
2019-02-09T02:41:02.081Z,5.68
2019-02-09T02:42:02.062Z,5.62
2019-02-09T02:43:02.006Z,5.82
2019-02-09T02:44:01.970Z,5.75
2019-02-09T02:45:01.934Z,5.76
2019-02-09T02:46:01.905Z,5.73
2019-02-09T02:47:03.661Z,5.76
2019-02-09T02:48:01.843Z,5.75
2019-02-09T02:49:01.826Z,5.79
2019-02-09T02:50:01.783Z,5.73
2019-02-09T02:51:01.770Z,5.76
2019-02-09T02:52:01.813Z,5.86
2019-02-09T02:53:02.256Z,5.86
2019-02-09T02:54:01.737Z,5.84
2019-02-09T02:55:02.166Z,5.83
2019-02-09T02:56:01.614Z,5.73
2019-02-09T02:57:01.646Z,5.73
2019-02-09T02:58:01.629Z,5.80
2019-02-09T02:59:02.258Z,5.73
2019-02-09T03:00:01.441Z,5.84
2019-02-09T03:01:01.480Z,5.76
2019-02-09T03:02:01.392Z,5.89
2019-02-09T03:03:01.347Z,5.86
2019-02-09T03:04:01.306Z,5.80
2019-02-09T03:05:01.268Z,5.80
2019-02-09T03:06:01.240Z,5.82
2019-02-09T03:07:01.246Z,5.91
2019-02-09T03:08:01.179Z,5.91
2019-02-09T03:09:01.139Z,5.97
2019-02-09T03:10:01.101Z,6.02
2019-02-09T03:11:01.072Z,6.05
2019-02-09T03:12:01.037Z,6.04
2019-02-09T03:13:01.029Z,6.08
2019-02-09T03:14:00.973Z,5.98
2019-02-09T03:15:00.937Z,6.01
2019-02-09T03:16:00.906Z,6.08
2019-02-09T03:17:00.870Z,6.08
2019-02-09T03:18:00.862Z,6.01
2019-02-09T03:19:01.773Z,6.11
2019-02-09T03:20:00.778Z,6.08
2019-02-09T03:21:00.791Z,6.02
2019-02-09T03:22:00.708Z,6.11
2019-02-09T03:23:00.697Z,6.04
2019-02-09T03:24:00.642Z,6.07
2019-02-09T03:25:00.605Z,6.04
2019-02-09T03:26:00.574Z,6.11
2019-02-09T03:27:00.546Z,6.14
2019-02-09T03:28:00.534Z,6.12
2019-02-09T03:29:00.476Z,6.09
2019-02-09T03:30:00.442Z,6.16
2019-02-09T03:31:00.407Z,6.16
2019-02-09T03:32:00.382Z,6.12
2019-02-09T03:33:00.388Z,6.19
2019-02-09T03:34:01.265Z,6.22
2019-02-09T03:35:00.279Z,6.24
2019-02-09T03:36:00.246Z,6.20
2019-02-09T03:37:00.210Z,6.24
2019-02-09T03:38:00.816Z,6.27
2019-02-09T03:39:00.759Z,6.33
2019-02-09T03:40:00.312Z,6.39
2019-02-09T03:41:00.078Z,6.41
2019-02-09T03:42:00.045Z,6.45
2019-02-09T03:43:00.295Z,6.44
2019-02-09T03:44:00.758Z,6.46
2019-02-09T03:44:59.948Z,6.49
2019-02-09T03:45:59.913Z,6.54
2019-02-09T03:46:59.892Z,6.51
2019-02-09T03:47:59.887Z,6.60
2019-02-09T03:49:00.670Z,6.52
2019-02-09T03:49:59.788Z,6.62
2019-02-09T03:50:59.765Z,6.66
2019-02-09T03:51:59.719Z,6.62
2019-02-09T03:52:59.713Z,6.59
2019-02-09T03:53:59.663Z,6.64
2019-02-09T03:54:59.619Z,6.62
2019-02-09T03:55:59.600Z,6.62
2019-02-09T03:56:59.556Z,6.70
2019-02-09T03:57:59.567Z,6.64
2019-02-09T03:58:59.495Z,6.69
2019-02-09T03:59:59.491Z,6.77
2019-02-09T04:00:59.425Z,6.81
2019-02-09T04:01:59.398Z,6.81
2019-02-09T04:02:59.393Z,6.79
2019-02-09T04:03:59.330Z,6.81
2019-02-09T04:04:59.305Z,6.77
2019-02-09T04:05:59.312Z,6.77
2019-02-09T04:06:59.236Z,6.78
2019-02-09T04:07:59.225Z,6.79
2019-02-09T04:08:59.170Z,6.78
2019-02-09T04:09:59.137Z,6.70
2019-02-09T04:10:59.114Z,6.77
2019-02-09T04:11:59.073Z,6.81
2019-02-09T04:12:59.194Z,6.77
2019-02-09T04:13:59.006Z,6.81
2019-02-09T04:14:58.971Z,6.84
2019-02-09T04:15:58.951Z,6.85
2019-02-09T04:16:59.770Z,6.87
2019-02-09T04:17:58.906Z,6.75
2019-02-09T04:18:58.841Z,6.72
2019-02-09T04:19:58.809Z,6.74
2019-02-09T04:20:58.824Z,6.74
2019-02-09T04:21:58.759Z,6.81
2019-02-09T04:22:58.799Z,6.74
2019-02-09T04:23:58.681Z,6.75
2019-02-09T04:24:58.644Z,6.72
2019-02-09T04:25:58.614Z,6.69
2019-02-09T04:26:58.584Z,6.81
2019-02-09T04:27:58.561Z,6.74
2019-02-09T04:28:58.539Z,6.74
2019-02-09T04:29:58.485Z,6.78
2019-02-09T04:31:05.479Z,6.72
2019-02-09T04:31:58.429Z,6.77
2019-02-09T04:32:58.393Z,6.66
2019-02-09T04:33:59.282Z,6.79
2019-02-09T04:34:59.285Z,6.77
2019-02-09T04:35:58.301Z,6.77
2019-02-09T04:36:58.278Z,6.70
2019-02-09T04:37:58.226Z,6.63
2019-02-09T04:38:58.222Z,6.60
2019-02-09T04:39:58.188Z,6.64
2019-02-09T04:40:58.782Z,6.60
2019-02-09T04:41:58.106Z,6.57
2019-02-09T04:42:58.101Z,6.57
2019-02-09T04:43:58.055Z,6.60
2019-02-09T04:44:58.004Z,6.59
2019-02-09T04:45:57.981Z,6.57
2019-02-09T04:46:57.935Z,6.60
2019-02-09T04:47:58.784Z,6.59
2019-02-09T04:48:57.900Z,6.51
2019-02-09T04:49:57.843Z,6.49
2019-02-09T04:50:57.808Z,6.52
2019-02-09T04:51:58.777Z,6.51
2019-02-09T04:52:57.741Z,6.49
2019-02-09T04:53:58.270Z,6.64
2019-02-09T04:54:57.689Z,6.57
2019-02-09T04:55:58.288Z,6.57
2019-02-09T04:56:57.614Z,6.62
2019-02-09T04:57:57.579Z,6.57
2019-02-09T04:58:57.574Z,6.57
2019-02-09T04:59:57.521Z,6.67
2019-02-09T05:00:57.488Z,6.62
2019-02-09T05:01:57.449Z,6.64
2019-02-09T05:02:57.424Z,6.66
2019-02-09T05:03:57.408Z,6.62
2019-02-09T05:04:57.355Z,6.60
2019-02-09T05:05:57.359Z,6.64
2019-02-09T05:06:57.300Z,6.67
2019-02-09T05:07:57.269Z,6.70
2019-02-09T05:08:57.246Z,6.63
2019-02-09T05:09:57.192Z,6.64
2019-02-09T05:10:57.164Z,6.62
2019-02-09T05:11:57.143Z,6.63
2019-02-09T05:12:57.099Z,6.60
2019-02-09T05:13:57.084Z,6.60
2019-02-09T05:14:57.033Z,6.63
2019-02-09T05:15:57.004Z,6.63
2019-02-09T05:16:56.968Z,6.57
2019-02-09T05:17:56.939Z,6.62
2019-02-09T05:18:56.930Z,6.66
2019-02-09T05:19:56.870Z,6.59
2019-02-09T05:20:57.777Z,6.74
2019-02-09T05:21:56.807Z,6.54
2019-02-09T05:22:56.773Z,6.66
2019-02-09T05:23:56.768Z,6.74
2019-02-09T05:24:56.716Z,6.57
2019-02-09T05:25:56.675Z,6.67
2019-02-09T05:26:56.643Z,6.62
2019-02-09T05:27:56.632Z,6.57
2019-02-09T05:28:56.604Z,6.67
2019-02-09T05:29:56.544Z,6.66
2019-02-09T05:30:56.522Z,6.63
2019-02-09T05:31:56.484Z,6.77
2019-02-09T05:32:56.454Z,6.64
2019-02-09T05:33:56.446Z,6.74
2019-02-09T05:34:57.302Z,6.70
2019-02-09T05:35:56.356Z,6.67
2019-02-09T05:36:56.322Z,6.77
2019-02-09T05:37:56.294Z,6.69
2019-02-09T05:38:56.279Z,6.75
2019-02-09T05:39:56.784Z,6.69
2019-02-09T05:40:56.198Z,6.74
2019-02-09T05:41:56.776Z,6.70
2019-02-09T05:42:56.131Z,6.70
2019-02-09T05:43:56.208Z,6.70
2019-02-09T05:44:56.070Z,6.79
2019-02-09T05:45:56.031Z,6.75
2019-02-09T05:46:56.002Z,6.66
2019-02-09T05:47:55.972Z,6.67
2019-02-09T05:48:55.937Z,6.72
2019-02-09T05:49:55.929Z,6.79
2019-02-09T05:50:55.872Z,6.69
2019-02-09T05:51:55.838Z,6.69
2019-02-09T05:52:55.805Z,6.70
2019-02-09T05:53:55.778Z,6.74
2019-02-09T05:54:55.777Z,6.69
2019-02-09T05:55:55.713Z,6.59
2019-02-09T05:56:55.682Z,6.64
2019-02-09T05:57:55.737Z,6.63
2019-02-09T05:58:55.617Z,6.63
2019-02-09T05:59:55.605Z,6.63
2019-02-09T06:00:55.549Z,6.60
2019-02-09T06:01:55.518Z,6.54
2019-02-09T06:02:55.490Z,6.46
2019-02-09T06:03:55.458Z,6.44
2019-02-09T06:04:55.443Z,6.49
2019-02-09T06:05:55.396Z,6.44
2019-02-09T06:06:55.360Z,6.38
2019-02-09T06:07:55.335Z,6.42
2019-02-09T06:08:55.293Z,6.30
2019-02-09T06:09:56.190Z,6.30
2019-02-09T06:10:55.245Z,6.26
2019-02-09T06:11:55.197Z,6.16
2019-02-09T06:12:59.191Z,6.22
2019-02-09T06:13:55.128Z,6.11
2019-02-09T06:14:55.123Z,6.19
2019-02-09T06:15:55.076Z,6.07
2019-02-09T06:16:55.035Z,6.11
2019-02-09T06:17:55.002Z,6.08
2019-02-09T06:18:54.971Z,5.98
2019-02-09T06:19:54.958Z,6.01
2019-02-09T06:20:58.687Z,6.02
2019-02-09T06:21:54.869Z,6.02
2019-02-09T06:22:58.691Z,6.08
2019-02-09T06:23:54.807Z,5.98
2019-02-09T06:24:54.796Z,6.02
2019-02-09T06:25:54.762Z,6.05
2019-02-09T06:26:54.722Z,6.05
2019-02-09T06:27:54.682Z,6.01
2019-02-09T06:28:54.646Z,6.07
2019-02-09T06:29:54.632Z,5.99
2019-02-09T06:30:54.577Z,6.07
2019-02-09T06:31:54.553Z,6.08
2019-02-09T06:32:54.539Z,6.05
2019-02-09T06:33:54.487Z,6.11
2019-02-09T06:34:54.474Z,6.05
2019-02-09T06:35:54.415Z,6.05
2019-02-09T06:36:55.287Z,6.09
2019-02-09T06:37:54.353Z,6.11
2019-02-09T06:38:54.318Z,6.01
2019-02-09T06:39:54.310Z,6.02
2019-02-09T06:40:54.252Z,6.02
2019-02-09T06:41:54.257Z,6.12
2019-02-09T06:42:54.194Z,6.07
2019-02-09T06:43:54.156Z,6.09
2019-02-09T06:44:54.183Z,6.28
2019-02-09T06:45:54.094Z,6.11
2019-02-09T06:46:54.063Z,6.19
2019-02-09T06:47:54.025Z,6.20
2019-02-09T06:48:54.001Z,6.22
2019-02-09T06:49:53.982Z,6.24
2019-02-09T06:50:53.979Z,6.30
2019-02-09T06:51:53.902Z,6.28
2019-02-09T06:52:53.874Z,6.30
2019-02-09T06:53:53.829Z,6.35
2019-02-09T06:54:53.822Z,6.38
2019-02-09T06:55:53.768Z,6.35
2019-02-09T06:56:53.734Z,6.38
2019-02-09T06:57:53.709Z,6.41
2019-02-09T06:58:53.688Z,6.38
2019-02-09T06:59:53.665Z,6.36
2019-02-09T07:00:53.603Z,6.39
2019-02-09T07:01:53.576Z,6.41
2019-02-09T07:02:54.615Z,6.35
2019-02-09T07:03:53.505Z,6.39
2019-02-09T07:04:53.499Z,6.42
2019-02-09T07:05:53.441Z,6.46
2019-02-09T07:06:53.409Z,6.46
2019-02-09T07:07:53.376Z,6.33
2019-02-09T07:08:53.347Z,6.46
2019-02-09T07:09:53.355Z,6.48
2019-02-09T07:10:53.287Z,6.54
2019-02-09T07:11:53.249Z,6.45
2019-02-09T07:12:53.212Z,6.54
2019-02-09T07:13:53.180Z,6.54
2019-02-09T07:14:53.694Z,6.54
2019-02-09T07:15:53.188Z,6.49
2019-02-09T07:16:53.082Z,6.54
2019-02-09T07:20:56.699Z,6.45
2019-02-09T07:21:56.696Z,6.46
2019-02-09T07:22:56.611Z,6.36
2019-02-09T07:23:56.586Z,6.42
2019-02-09T07:24:56.548Z,6.39
2019-02-09T07:25:56.543Z,6.33
2019-02-09T07:26:56.481Z,6.33
2019-02-09T07:27:56.446Z,6.33
2019-02-09T07:28:56.476Z,6.28
2019-02-09T07:29:56.413Z,6.30
2019-02-09T07:30:56.374Z,6.28
2019-02-09T07:31:56.741Z,6.24
2019-02-09T07:32:56.286Z,6.24
2019-02-09T07:33:56.827Z,6.17
2019-02-09T07:34:56.219Z,6.19
2019-02-09T07:35:56.212Z,6.12
2019-02-09T07:36:56.834Z,6.08
2019-02-09T07:37:56.126Z,6.26
2019-02-09T07:38:56.091Z,6.16
2019-02-09T07:39:56.056Z,6.20
2019-02-09T07:40:56.050Z,6.08
2019-02-09T07:41:56.916Z,6.14
2019-02-09T07:42:56.076Z,6.16
2019-02-09T07:43:55.935Z,6.14
2019-02-09T07:44:55.897Z,6.14
2019-02-09T07:45:55.910Z,6.17
2019-02-09T07:46:55.831Z,6.22
2019-02-09T07:47:55.798Z,6.14
2019-02-09T07:48:55.764Z,6.17
2019-02-09T07:49:55.732Z,6.14
2019-02-09T07:50:55.762Z,6.19
2019-02-09T07:51:55.670Z,6.28
2019-02-09T07:52:55.637Z,6.24
2019-02-09T07:53:55.625Z,6.20
2019-02-09T07:54:55.568Z,6.27
2019-02-09T07:55:55.865Z,6.27
2019-02-09T07:56:55.504Z,6.28
2019-02-09T07:57:55.471Z,6.22
2019-02-09T07:58:55.441Z,6.38
2019-02-09T07:59:55.410Z,6.41
2019-02-09T08:00:55.415Z,6.54
2019-02-09T08:01:55.379Z,6.51
2019-02-09T08:02:55.319Z,6.63
2019-02-09T08:03:55.283Z,6.60
2019-02-09T08:04:55.244Z,6.70
2019-02-09T08:05:55.234Z,6.84
2019-02-09T08:06:55.178Z,6.89
2019-02-09T08:07:55.154Z,7.07
2019-02-09T08:08:55.112Z,7.13
2019-02-09T08:09:55.085Z,7.11
2019-02-09T08:10:55.074Z,7.11
2019-02-09T08:11:55.017Z,7.15
2019-02-09T08:12:54.986Z,7.14
2019-02-09T08:13:54.995Z,7.11
2019-02-09T08:14:54.921Z,7.23
2019-02-09T08:15:55.868Z,7.23
2019-02-09T08:16:54.856Z,7.36
2019-02-09T08:17:54.822Z,7.38
2019-02-09T08:18:54.796Z,7.42
2019-02-09T08:19:54.761Z,7.56
2019-02-09T08:20:54.766Z,7.63
2019-02-09T08:21:54.706Z,7.58
2019-02-09T08:22:54.663Z,7.70
2019-02-09T08:23:54.634Z,7.77
2019-02-09T08:24:58.241Z,7.75
2019-02-09T08:25:55.244Z,7.75
2019-02-09T08:26:55.334Z,7.80
2019-02-09T08:27:54.592Z,7.75
2019-02-09T08:28:54.649Z,7.66
2019-02-09T08:29:54.482Z,7.69
2019-02-09T08:30:56.250Z,7.69
2019-02-09T08:31:54.379Z,7.66
2019-02-09T08:32:54.401Z,7.60
2019-02-09T08:33:55.243Z,7.60
2019-02-09T08:34:54.836Z,7.56
2019-02-09T08:35:54.278Z,7.53
2019-02-09T08:36:54.247Z,7.73
2019-02-09T08:37:54.192Z,7.66
2019-02-09T08:38:54.165Z,7.80
2019-02-09T08:39:55.743Z,7.91
2019-02-09T08:40:54.099Z,7.80
2019-02-09T08:41:54.091Z,7.95
2019-02-09T08:42:54.034Z,7.83
2019-02-09T08:43:54.009Z,7.93
2019-02-09T08:44:53.971Z,7.94
2019-02-09T08:45:53.937Z,8.03
2019-02-09T08:46:54.373Z,8.10
2019-02-09T08:47:53.876Z,8.09
2019-02-09T08:48:53.851Z,8.13
2019-02-09T08:49:54.339Z,8.12
2019-02-09T08:50:53.788Z,8.01
2019-02-09T08:51:53.773Z,7.98
2019-02-09T08:52:53.719Z,8.03
2019-02-09T08:53:53.733Z,7.98
2019-02-09T08:54:53.682Z,8.06
2019-02-09T08:55:53.626Z,7.94
2019-02-09T08:56:53.641Z,7.82
2019-02-09T08:57:53.623Z,7.83
2019-02-09T08:58:53.533Z,7.82
2019-02-09T08:59:54.345Z,7.85
2019-02-09T09:00:53.471Z,7.83
2019-02-09T09:01:53.881Z,7.90
2019-02-09T09:02:53.411Z,7.91
2019-02-09T09:03:53.377Z,8.01
2019-02-09T09:04:53.350Z,8.01
2019-02-09T09:05:53.311Z,8.09
2019-02-09T09:06:53.310Z,8.13
2019-02-09T09:07:53.438Z,8.16
2019-02-09T09:08:53.219Z,8.19
2019-02-09T09:09:53.189Z,8.19
2019-02-09T09:10:53.156Z,8.20
2019-02-09T09:11:53.146Z,8.30
2019-02-09T09:12:53.091Z,8.37
2019-02-09T09:13:53.059Z,8.33
2019-02-09T09:14:53.749Z,8.33
2019-02-09T09:15:52.995Z,8.30
2019-02-09T09:16:52.990Z,8.46
2019-02-09T09:17:52.933Z,8.41
2019-02-09T09:18:52.906Z,8.48
2019-02-09T09:19:52.874Z,8.49
2019-02-09T09:20:52.871Z,8.51
2019-02-09T09:21:52.831Z,8.56
2019-02-09T09:22:52.789Z,8.81
2019-02-09T09:23:52.748Z,8.91
2019-02-09T09:24:52.718Z,8.94
2019-02-09T09:25:52.695Z,8.97
2019-02-09T09:26:52.679Z,9.16
2019-02-09T09:27:52.622Z,9.14
2019-02-09T09:28:52.595Z,9.11
2019-02-09T09:29:52.566Z,9.23
2019-02-09T09:30:52.531Z,9.34
2019-02-09T09:31:52.535Z,9.37
2019-02-09T09:32:52.476Z,9.44
2019-02-09T09:33:52.445Z,9.28
2019-02-09T09:34:52.408Z,9.22
2019-02-09T09:35:52.384Z,9.13
2019-02-09T09:41:27.901Z,9.11
2019-02-09T09:42:27.856Z,9.14
2019-02-09T09:43:27.797Z,9.04
2019-02-09T09:44:27.765Z,9.02
2019-02-09T09:45:27.736Z,8.95
2019-02-09T09:46:27.706Z,8.92
2019-02-09T09:47:27.697Z,8.89
2019-02-09T09:48:27.645Z,8.69
2019-02-09T09:49:28.114Z,8.79
2019-02-09T09:50:27.586Z,8.63
2019-02-09T09:51:27.555Z,8.69
2019-02-09T09:52:27.551Z,8.66
2019-02-09T09:53:27.497Z,8.73
2019-02-09T09:54:27.462Z,8.76
2019-02-09T09:55:27.432Z,8.71
2019-02-09T09:56:27.403Z,8.78
2019-02-09T09:57:27.388Z,8.78
2019-02-09T09:58:27.335Z,8.84
2019-02-09T09:59:27.307Z,8.84
2019-02-09T10:00:27.274Z,8.94
2019-02-09T10:01:27.243Z,8.92
2019-02-09T10:02:27.234Z,8.92
2019-02-09T10:03:27.180Z,9.02
2019-02-09T10:04:27.150Z,8.99
2019-02-09T10:05:27.122Z,9.00
2019-02-09T10:06:27.104Z,9.10
2019-02-09T10:07:27.086Z,9.08
2019-02-09T10:08:27.031Z,9.18
2019-02-09T10:09:27.004Z,9.18
2019-02-09T10:10:27.018Z,9.18
2019-02-09T10:11:26.935Z,9.16
2019-02-09T10:12:27.150Z,9.23
2019-02-09T10:13:27.623Z,9.21
2019-02-09T10:14:29.033Z,9.28
2019-02-09T10:15:26.917Z,9.29
2019-02-09T10:16:29.618Z,9.39
2019-02-09T10:17:27.166Z,9.37
2019-02-09T10:18:27.699Z,9.32
2019-02-09T10:19:27.624Z,9.46
2019-02-09T10:20:26.726Z,9.46
2019-02-09T10:21:26.635Z,9.48
2019-02-09T10:22:27.613Z,9.46
2019-02-09T10:23:26.558Z,9.55
2019-02-09T10:24:26.921Z,9.50
2019-02-09T10:25:26.501Z,9.58
2019-02-09T10:26:26.468Z,9.61
2019-02-09T10:27:26.476Z,9.66
2019-02-09T10:28:33.451Z,9.74
2019-02-09T10:29:26.379Z,9.66
2019-02-09T10:30:26.345Z,9.74
2019-02-09T10:31:26.309Z,9.76
2019-02-09T10:32:26.282Z,9.86
2019-02-09T10:33:26.274Z,9.83
2019-02-09T10:34:26.218Z,9.83
2019-02-09T10:35:26.185Z,9.84
2019-02-09T10:36:26.161Z,9.82
2019-02-09T10:37:26.125Z,9.86
2019-02-09T10:38:26.159Z,9.94
2019-02-09T10:39:26.066Z,9.91
2019-02-09T10:40:26.036Z,9.95
2019-02-09T10:41:26.004Z,9.98
2019-02-09T10:42:25.973Z,10.01
2019-02-09T10:43:25.969Z,10.01
2019-02-09T10:44:25.957Z,10.15
2019-02-09T10:45:25.883Z,10.12
2019-02-09T10:46:25.850Z,10.13
2019-02-09T10:47:25.862Z,10.13
2019-02-09T10:48:25.805Z,10.33
2019-02-09T10:49:25.804Z,10.26
2019-02-09T10:50:25.732Z,10.41
2019-02-09T10:51:25.695Z,10.48
2019-02-09T10:52:25.670Z,10.63
2019-02-09T10:53:25.677Z,10.57
2019-02-09T10:54:25.607Z,10.57
2019-02-09T10:55:25.573Z,10.68
2019-02-09T10:56:25.562Z,10.75
2019-02-09T10:57:25.519Z,10.82
2019-02-09T10:58:25.510Z,10.86
2019-02-09T10:59:25.473Z,11.02
2019-02-09T11:00:25.421Z,11.14
2019-02-09T11:01:25.393Z,11.18
2019-02-09T11:02:25.365Z,11.26
2019-02-09T11:03:25.356Z,11.26
2019-02-09T11:04:25.302Z,11.29
2019-02-09T11:05:25.271Z,11.30
2019-02-09T11:06:25.246Z,11.32
2019-02-09T11:07:25.212Z,11.32
2019-02-09T11:08:25.204Z,11.37
2019-02-09T11:09:25.152Z,11.45
2019-02-09T11:10:25.127Z,11.47
2019-02-09T11:11:25.094Z,11.45
2019-02-09T11:12:25.065Z,11.48
2019-02-09T11:13:25.044Z,11.48
2019-02-09T11:14:25.029Z,11.30
2019-02-09T11:15:24.975Z,11.26
2019-02-09T11:16:24.954Z,11.36
2019-02-09T11:17:24.918Z,11.45
2019-02-09T11:18:24.890Z,11.43
2019-02-09T11:19:24.885Z,11.43
2019-02-09T11:20:24.834Z,11.48
2019-02-09T11:21:24.805Z,11.48
2019-02-09T11:22:24.797Z,11.62
2019-02-09T11:23:24.750Z,11.73
2019-02-09T11:24:24.736Z,11.69
2019-02-09T11:25:24.688Z,11.66
2019-02-09T11:26:24.657Z,11.55
2019-02-09T11:27:24.632Z,11.55
2019-02-09T11:28:24.597Z,11.47
2019-02-09T11:29:24.592Z,11.47
2019-02-09T11:30:24.545Z,11.48
2019-02-09T11:31:24.515Z,11.48
2019-02-09T11:32:24.487Z,11.45
2019-02-09T11:33:24.453Z,11.36
2019-02-09T11:34:24.450Z,11.44
2019-02-09T11:35:24.396Z,11.35
2019-02-09T11:36:24.380Z,11.48
2019-02-09T11:37:24.339Z,11.48
2019-02-09T11:38:24.313Z,11.57
2019-02-09T11:39:24.306Z,11.69
2019-02-09T11:40:24.265Z,12.06
2019-02-09T11:41:24.232Z,12.13
2019-02-09T11:42:24.199Z,12.27
2019-02-09T11:43:24.195Z,12.39
2019-02-09T11:44:24.162Z,12.31
2019-02-09T11:45:24.112Z,12.31
2019-02-09T11:46:25.656Z,12.40
2019-02-09T11:47:24.083Z,12.43
2019-02-09T11:48:24.029Z,12.27
2019-02-09T11:49:24.020Z,12.22
2019-02-09T11:50:23.974Z,12.22
2019-02-09T11:51:23.944Z,12.00
2019-02-09T11:52:23.917Z,11.99
2019-02-09T11:53:23.888Z,12.07
2019-02-09T11:54:23.886Z,11.97
2019-02-09T11:55:23.836Z,11.73
2019-02-09T11:56:24.295Z,11.75
2019-02-09T11:57:23.778Z,11.68
2019-02-09T11:58:23.745Z,11.75
2019-02-09T11:59:23.739Z,11.65
2019-02-09T12:00:23.719Z,11.45
2019-02-09T12:01:23.663Z,11.55
2019-02-09T12:02:23.630Z,11.52
2019-02-09T12:03:23.600Z,11.57
2019-02-09T12:04:23.571Z,11.54
2019-02-09T12:05:23.710Z,11.52
2019-02-09T12:06:23.517Z,11.47
2019-02-09T12:07:23.943Z,11.47
2019-02-09T12:08:24.190Z,11.36
2019-02-09T12:09:23.433Z,11.29
2019-02-09T12:10:23.434Z,11.27
2019-02-09T12:11:23.375Z,11.27
2019-02-09T12:12:24.163Z,11.02
2019-02-09T12:13:23.315Z,10.87
2019-02-09T12:14:23.287Z,10.97
2019-02-09T12:15:24.072Z,10.96
2019-02-09T12:16:23.228Z,10.90
2019-02-09T12:17:23.203Z,10.89
2019-02-09T12:18:23.175Z,10.76
2019-02-09T12:19:23.141Z,10.76
2019-02-09T12:20:23.133Z,10.79
2019-02-09T12:21:23.155Z,10.87
2019-02-09T12:22:23.054Z,10.93
2019-02-09T12:23:23.064Z,10.84
2019-02-09T12:24:23.001Z,10.86
2019-02-09T12:25:22.996Z,10.86
2019-02-09T12:26:23.017Z,10.82
2019-02-09T12:27:22.933Z,10.99
2019-02-09T12:28:22.879Z,11.00
2019-02-09T12:29:22.852Z,10.99
2019-02-09T12:30:22.846Z,11.27
2019-02-09T12:31:22.790Z,11.43
2019-02-09T12:32:23.669Z,11.55
2019-02-09T12:33:23.479Z,11.97
2019-02-09T12:34:22.702Z,12.10
2019-02-09T12:35:22.702Z,12.28
2019-02-09T12:36:22.646Z,12.15
2019-02-09T12:37:22.614Z,12.20
2019-02-09T12:38:22.585Z,12.17
2019-02-09T12:39:22.556Z,12.25
2019-02-09T12:40:22.553Z,12.46
2019-02-09T12:41:22.496Z,12.47
2019-02-09T12:42:22.473Z,12.55
2019-02-09T12:43:22.443Z,12.65
2019-02-09T12:44:22.413Z,12.58
2019-02-09T12:45:22.412Z,12.32
2019-02-09T12:46:22.355Z,12.18
2019-02-09T12:47:22.336Z,12.13
2019-02-09T12:48:22.332Z,12.21
2019-02-09T12:49:22.274Z,12.29
2019-02-09T12:50:22.265Z,12.35
2019-02-09T12:51:22.215Z,12.29
2019-02-09T12:52:22.186Z,12.27
2019-02-09T12:53:22.159Z,12.17
2019-02-09T12:54:22.132Z,11.95
2019-02-09T12:55:22.203Z,12.04
2019-02-09T12:56:22.075Z,11.95
2019-02-09T12:57:22.048Z,11.84
2019-02-09T12:58:22.017Z,11.78
2019-02-09T12:59:22.033Z,11.72
2019-02-09T13:00:21.984Z,11.70
2019-02-09T13:01:21.934Z,11.72
2019-02-09T13:02:21.905Z,11.69
2019-02-09T13:03:21.874Z,11.73
2019-02-09T13:04:21.849Z,11.73
2019-02-09T13:05:21.842Z,11.63
2019-02-09T13:06:21.789Z,11.47
2019-02-09T13:07:21.760Z,11.45
2019-02-09T13:08:21.738Z,11.44
2019-02-09T13:09:21.705Z,11.44
2019-02-09T13:10:21.702Z,11.44
2019-02-09T13:11:21.649Z,11.37
2019-02-09T13:12:21.618Z,11.26
2019-02-09T13:13:21.593Z,11.23
2019-02-09T13:14:21.565Z,11.27
2019-02-09T13:15:21.532Z,11.26
2019-02-09T13:16:21.533Z,11.26
2019-02-09T13:17:21.476Z,11.26
2019-02-09T13:18:21.448Z,11.23
2019-02-09T13:19:21.423Z,11.23
2019-02-09T13:20:21.413Z,11.29